This is the latest recevied weather packets stored in our database for station/object K7FLA. If no packets are shown the sender has not sent any weather packets the latest 10 day(s).
| Time | Temp. | Humidity | Pressure | Rain* | Wind** | Luminosity | Snow |
|---|---|---|---|---|---|---|---|
| 1778018898 | 18.33° C | 47% | 1093.9 hPa | 0 mm | - | 241 W/m² | - |
| 1778018595 | 18.33° C | 49% | 1093.8 hPa | 0 mm | - | 496 W/m² | - |
| 1778018293 | 17.78° C | 48% | 1093.9 hPa | 0 mm | - | 382 W/m² | - |
| 1778017990 | 17.78° C | 48% | 1094.1 hPa | 0 mm | - | 369 W/m² | - |
| 1778017688 | 17.78° C | 48% | 1094.1 hPa | 0 mm | - | 330 W/m² | - |
| 1778017386 | 17.78° C | 50% | 1094.1 hPa | 0 mm | - | 328 W/m² | - |
| 1778017082 | 18.33° C | 48% | 1094 hPa | 0 mm | - | 235 W/m² | - |
| 1778016780 | 18.33° C | 47% | 1094.3 hPa | 0 mm | - | 183 W/m² | - |
| 1778016475 | 18.89° C | 48% | 1094.2 hPa | 0 mm | - | 198 W/m² | - |
| 1778016173 | 18.33° C | 50% | 1094.2 hPa | 0 mm | - | 293 W/m² | - |
| 1778015870 | 17.78° C | 51% | 1094.3 hPa | 0 mm | - | 818 W/m² | - |
| 1778015567 | 17.78° C | 50% | 1094.3 hPa | 0 mm | - | 194 W/m² | - |
| 1778015263 | 17.78° C | 49% | 1094.5 hPa | 0 mm | - | 189 W/m² | - |
| 1778014960 | 17.78° C | 48% | 1094.7 hPa | 0 mm | - | 216 W/m² | - |
| 1778014658 | 18.33° C | 46% | 1094.7 hPa | 0 mm | - | 210 W/m² | - |
| 1778014356 | 18.89° C | 48% | 1094.5 hPa | 0 mm | - | 237 W/m² | - |
| 1778014052 | 17.78° C | 52% | 1094.7 hPa | 0 mm | - | 1096 W/m² | - |
| 1778013750 | 17.78° C | 52% | 1094.6 hPa | 0 mm | - | 288 W/m² | - |
| 1778013447 | 17.78° C | 49% | 1094.5 hPa | 0 mm | - | 238 W/m² | - |
| 1778013144 | 17.78° C | 47% | 1094.5 hPa | 0 mm | - | 462 W/m² | - |
| 1778012839 | 17.22° C | 54% | 1094.7 hPa | 0 mm | - | 1110 W/m² | - |
| 1778012536 | 16.67° C | 51% | 1094.7 hPa | 0 mm | - | 322 W/m² | - |
| 1778012232 | 17.22° C | 49% | 1094.6 hPa | 0 mm | - | 187 W/m² | - |
| 1778011930 | 17.22° C | 52% | 1094.6 hPa | 0 mm | - | 165 W/m² | - |
| 1778011628 | 17.78° C | 51% | 1094.7 hPa | 0 mm | - | 238 W/m² | - |
* Rain latest hour (hover to see other rain measurements)
** Current wind speed in m/s (hover to see current wind gust speed)